sensor_id;sensor_type;location;lat;lon;timestamp;P1;durP1;ratioP1;P2;durP2;ratioP2
29478;SDS011;16437;41.836;23.480;2022-07-19T00:00:33;3.65;;;2.50;;
29478;SDS011;16437;41.836;23.480;2022-07-19T00:06:00;3.22;;;2.40;;
29478;SDS011;16437;41.836;23.480;2022-07-19T00:11:26;3.70;;;2.02;;
29478;SDS011;16437;41.836;23.480;2022-07-19T00:16:53;2.87;;;2.25;;
29478;SDS011;16437;41.836;23.480;2022-07-19T00:22:19;3.25;;;2.37;;
29478;SDS011;16437;41.836;23.480;2022-07-19T00:27:46;3.30;;;2.20;;
29478;SDS011;16437;41.836;23.480;2022-07-19T00:33:12;2.98;;;2.27;;
29478;SDS011;16437;41.836;23.480;2022-07-19T00:38:39;3.45;;;2.40;;
29478;SDS011;16437;41.836;23.480;2022-07-19T00:44:06;3.87;;;2.33;;
29478;SDS011;16437;41.836;23.480;2022-07-19T00:49:33;4.40;;;2.45;;
29478;SDS011;16437;41.836;23.480;2022-07-19T00:54:59;3.20;;;2.20;;
29478;SDS011;16437;41.836;23.480;2022-07-19T01:00:28;3.55;;;2.40;;
29478;SDS011;16437;41.836;23.480;2022-07-19T01:05:57;3.12;;;2.40;;
29478;SDS011;16437;41.836;23.480;2022-07-19T01:11:23;3.75;;;2.58;;
29478;SDS011;16437;41.836;23.480;2022-07-19T01:16:49;3.50;;;2.55;;
29478;SDS011;16437;41.836;23.480;2022-07-19T01:22:16;3.20;;;2.50;;
29478;SDS011;16437;41.836;23.480;2022-07-19T01:27:43;3.08;;;2.20;;
29478;SDS011;16437;41.836;23.480;2022-07-19T01:33:13;3.80;;;2.40;;
29478;SDS011;16437;41.836;23.480;2022-07-19T01:38:39;3.60;;;2.45;;
29478;SDS011;16437;41.836;23.480;2022-07-19T01:44:06;4.30;;;2.40;;
29478;SDS011;16437;41.836;23.480;2022-07-19T01:49:32;4.08;;;2.80;;
29478;SDS011;16437;41.836;23.480;2022-07-19T01:54:59;3.55;;;2.45;;
29478;SDS011;16437;41.836;23.480;2022-07-19T02:00:25;3.30;;;2.55;;
29478;SDS011;16437;41.836;23.480;2022-07-19T02:05:52;3.45;;;2.52;;
29478;SDS011;16437;41.836;23.480;2022-07-19T02:11:19;3.62;;;2.70;;
29478;SDS011;16437;41.836;23.480;2022-07-19T02:17:01;3.35;;;2.70;;
29478;SDS011;16437;41.836;23.480;2022-07-19T02:22:27;3.83;;;2.52;;
29478;SDS011;16437;41.836;23.480;2022-07-19T02:27:54;4.95;;;2.80;;
29478;SDS011;16437;41.836;23.480;2022-07-19T02:33:20;4.47;;;3.22;;
29478;SDS011;16437;41.836;23.480;2022-07-19T02:38:47;3.75;;;2.65;;
29478;SDS011;16437;41.836;23.480;2022-07-19T02:44:14;4.40;;;2.90;;
29478;SDS011;16437;41.836;23.480;2022-07-19T02:49:40;4.37;;;3.05;;
29478;SDS011;16437;41.836;23.480;2022-07-19T02:55:07;5.65;;;2.80;;
29478;SDS011;16437;41.836;23.480;2022-07-19T03:00:34;4.45;;;2.98;;
29478;SDS011;16437;41.836;23.480;2022-07-19T03:06:00;4.30;;;2.92;;
29478;SDS011;16437;41.836;23.480;2022-07-19T03:11:27;3.77;;;2.92;;
29478;SDS011;16437;41.836;23.480;2022-07-19T03:16:54;4.80;;;3.20;;
29478;SDS011;16437;41.836;23.480;2022-07-19T03:22:20;5.50;;;3.10;;
29478;SDS011;16437;41.836;23.480;2022-07-19T03:27:47;5.87;;;3.10;;
29478;SDS011;16437;41.836;23.480;2022-07-19T03:33:14;4.75;;;3.20;;
29478;SDS011;16437;41.836;23.480;2022-07-19T03:38:40;7.03;;;3.50;;
29478;SDS011;16437;41.836;23.480;2022-07-19T03:44:07;5.33;;;3.50;;
29478;SDS011;16437;41.836;23.480;2022-07-19T03:49:34;4.20;;;3.17;;
29478;SDS011;16437;41.836;23.480;2022-07-19T03:55:00;5.15;;;3.58;;
29478;SDS011;16437;41.836;23.480;2022-07-19T04:00:26;4.35;;;3.50;;
29478;SDS011;16437;41.836;23.480;2022-07-19T04:05:53;4.58;;;3.47;;
29478;SDS011;16437;41.836;23.480;2022-07-19T04:11:20;5.42;;;3.70;;
29478;SDS011;16437;41.836;23.480;2022-07-19T04:16:46;4.45;;;2.87;;
29478;SDS011;16437;41.836;23.480;2022-07-19T04:22:13;5.87;;;3.33;;
29478;SDS011;16437;41.836;23.480;2022-07-19T04:27:39;4.75;;;3.05;;
29478;SDS011;16437;41.836;23.480;2022-07-19T04:33:06;6.72;;;3.40;;
29478;SDS011;16437;41.836;23.480;2022-07-19T04:38:32;5.42;;;3.65;;
29478;SDS011;16437;41.836;23.480;2022-07-19T04:43:58;4.67;;;3.52;;
29478;SDS011;16437;41.836;23.480;2022-07-19T04:49:25;5.83;;;3.40;;
29478;SDS011;16437;41.836;23.480;2022-07-19T04:54:51;5.05;;;3.40;;
29478;SDS011;16437;41.836;23.480;2022-07-19T05:00:18;5.90;;;3.50;;
29478;SDS011;16437;41.836;23.480;2022-07-19T05:05:44;5.33;;;3.50;;
29478;SDS011;16437;41.836;23.480;2022-07-19T05:11:10;6.08;;;3.80;;
29478;SDS011;16437;41.836;23.480;2022-07-19T05:16:37;5.58;;;3.50;;
29478;SDS011;16437;41.836;23.480;2022-07-19T05:22:04;6.10;;;3.17;;
29478;SDS011;16437;41.836;23.480;2022-07-19T05:27:30;5.55;;;3.35;;
29478;SDS011;16437;41.836;23.480;2022-07-19T05:32:57;4.62;;;3.45;;
29478;SDS011;16437;41.836;23.480;2022-07-19T05:38:23;6.65;;;3.87;;
29478;SDS011;16437;41.836;23.480;2022-07-19T05:43:51;4.72;;;3.30;;
29478;SDS011;16437;41.836;23.480;2022-07-19T05:49:18;5.45;;;3.65;;
29478;SDS011;16437;41.836;23.480;2022-07-19T05:54:45;4.20;;;3.20;;
29478;SDS011;16437;41.836;23.480;2022-07-19T06:00:11;5.05;;;3.62;;
29478;SDS011;16437;41.836;23.480;2022-07-19T06:05:39;4.78;;;3.60;;
29478;SDS011;16437;41.836;23.480;2022-07-19T06:11:05;4.15;;;3.25;;
29478;SDS011;16437;41.836;23.480;2022-07-19T06:16:32;5.75;;;3.55;;
29478;SDS011;16437;41.836;23.480;2022-07-19T06:21:58;5.00;;;3.20;;
29478;SDS011;16437;41.836;23.480;2022-07-19T06:27:24;4.62;;;3.40;;
29478;SDS011;16437;41.836;23.480;2022-07-19T06:32:51;4.92;;;3.30;;
29478;SDS011;16437;41.836;23.480;2022-07-19T06:38:18;4.53;;;3.25;;
29478;SDS011;16437;41.836;23.480;2022-07-19T06:43:44;3.62;;;2.90;;
29478;SDS011;16437;41.836;23.480;2022-07-19T06:49:10;4.58;;;3.45;;
29478;SDS011;16437;41.836;23.480;2022-07-19T06:54:36;5.17;;;3.10;;
29478;SDS011;16437;41.836;23.480;2022-07-19T07:00:03;5.10;;;3.08;;
29478;SDS011;16437;41.836;23.480;2022-07-19T07:05:32;4.58;;;3.15;;
29478;SDS011;16437;41.836;23.480;2022-07-19T07:10:59;5.42;;;3.08;;
29478;SDS011;16437;41.836;23.480;2022-07-19T07:16:26;5.75;;;3.35;;
29478;SDS011;16437;41.836;23.480;2022-07-19T07:21:52;6.65;;;3.00;;
29478;SDS011;16437;41.836;23.480;2022-07-19T07:27:20;4.40;;;2.65;;
29478;SDS011;16437;41.836;23.480;2022-07-19T07:32:47;6.35;;;3.12;;
29478;SDS011;16437;41.836;23.480;2022-07-19T07:38:13;3.90;;;2.95;;
29478;SDS011;16437;41.836;23.480;2022-07-19T07:43:40;3.35;;;2.60;;
29478;SDS011;16437;41.836;23.480;2022-07-19T07:49:06;5.95;;;2.80;;
29478;SDS011;16437;41.836;23.480;2022-07-19T07:54:33;5.70;;;2.98;;
29478;SDS011;16437;41.836;23.480;2022-07-19T08:00:00;4.28;;;2.70;;
29478;SDS011;16437;41.836;23.480;2022-07-19T08:05:27;3.95;;;2.50;;
29478;SDS011;16437;41.836;23.480;2022-07-19T08:10:54;3.87;;;2.67;;
29478;SDS011;16437;41.836;23.480;2022-07-19T08:16:21;3.87;;;2.80;;
29478;SDS011;16437;41.836;23.480;2022-07-19T08:21:48;4.10;;;2.55;;
29478;SDS011;16437;41.836;23.480;2022-07-19T08:27:14;4.80;;;2.70;;
29478;SDS011;16437;41.836;23.480;2022-07-19T08:32:40;2.72;;;2.35;;
29478;SDS011;16437;41.836;23.480;2022-07-19T08:38:07;3.50;;;2.42;;
29478;SDS011;16437;41.836;23.480;2022-07-19T08:43:33;3.08;;;2.22;;
29478;SDS011;16437;41.836;23.480;2022-07-19T08:49:00;5.35;;;2.30;;
29478;SDS011;16437;41.836;23.480;2022-07-19T08:54:27;3.40;;;2.40;;
29478;SDS011;16437;41.836;23.480;2022-07-19T08:59:53;2.98;;;2.20;;
29478;SDS011;16437;41.836;23.480;2022-07-19T09:05:20;3.50;;;2.40;;
29478;SDS011;16437;41.836;23.480;2022-07-19T09:10:47;3.45;;;2.27;;
29478;SDS011;16437;41.836;23.480;2022-07-19T09:16:53;3.10;;;2.15;;
29478;SDS011;16437;41.836;23.480;2022-07-19T09:22:33;2.98;;;2.30;;
29478;SDS011;16437;41.836;23.480;2022-07-19T09:28:01;3.47;;;2.30;;
29478;SDS011;16437;41.836;23.480;2022-07-19T09:33:29;2.87;;;2.00;;
29478;SDS011;16437;41.836;23.480;2022-07-19T09:38:57;2.83;;;1.95;;
29478;SDS011;16437;41.836;23.480;2022-07-19T09:44:24;3.77;;;1.80;;
29478;SDS011;16437;41.836;23.480;2022-07-19T09:49:51;2.47;;;2.00;;
29478;SDS011;16437;41.836;23.480;2022-07-19T09:55:18;2.10;;;1.90;;
29478;SDS011;16437;41.836;23.480;2022-07-19T10:00:45;2.83;;;1.92;;
29478;SDS011;16437;41.836;23.480;2022-07-19T10:06:11;2.22;;;1.98;;
29478;SDS011;16437;41.836;23.480;2022-07-19T10:11:38;2.00;;;1.75;;
29478;SDS011;16437;41.836;23.480;2022-07-19T10:17:11;2.77;;;1.70;;
29478;SDS011;16437;41.836;23.480;2022-07-19T10:22:38;2.50;;;1.87;;
29478;SDS011;16437;41.836;23.480;2022-07-19T10:28:05;2.20;;;1.62;;
29478;SDS011;16437;41.836;23.480;2022-07-19T10:33:35;3.17;;;1.85;;
29478;SDS011;16437;41.836;23.480;2022-07-19T10:50:25;3.20;;;1.72;;
29478;SDS011;16437;41.836;23.480;2022-07-19T10:56:15;2.58;;;1.62;;
29478;SDS011;16437;41.836;23.480;2022-07-19T11:01:54;2.08;;;1.47;;
29478;SDS011;16437;41.836;23.480;2022-07-19T11:07:22;2.33;;;1.60;;
29478;SDS011;16437;41.836;23.480;2022-07-19T11:12:48;1.60;;;1.50;;
29478;SDS011;16437;41.836;23.480;2022-07-19T11:18:15;2.58;;;1.50;;
29478;SDS011;16437;41.836;23.480;2022-07-19T11:23:43;3.22;;;1.65;;
29478;SDS011;16437;41.836;23.480;2022-07-19T11:29:10;2.52;;;1.65;;
29478;SDS011;16437;41.836;23.480;2022-07-19T11:34:36;2.45;;;1.52;;
29478;SDS011;16437;41.836;23.480;2022-07-19T11:40:03;1.98;;;1.40;;
29478;SDS011;16437;41.836;23.480;2022-07-19T11:45:30;2.25;;;1.60;;
29478;SDS011;16437;41.836;23.480;2022-07-19T11:51:03;3.27;;;1.52;;
29478;SDS011;16437;41.836;23.480;2022-07-19T11:56:32;2.17;;;1.47;;
29478;SDS011;16437;41.836;23.480;2022-07-19T12:02:00;1.80;;;1.30;;
29478;SDS011;16437;41.836;23.480;2022-07-19T12:07:27;2.42;;;1.65;;
29478;SDS011;16437;41.836;23.480;2022-07-19T12:12:53;1.92;;;1.30;;
29478;SDS011;16437;41.836;23.480;2022-07-19T12:18:21;1.98;;;1.32;;
29478;SDS011;16437;41.836;23.480;2022-07-19T12:24:08;3.25;;;1.60;;
29478;SDS011;16437;41.836;23.480;2022-07-19T12:29:46;2.20;;;1.40;;
29478;SDS011;16437;41.836;23.480;2022-07-19T12:35:14;1.55;;;1.20;;
29478;SDS011;16437;41.836;23.480;2022-07-19T12:40:42;3.02;;;1.40;;
29478;SDS011;16437;41.836;23.480;2022-07-19T12:46:09;5.22;;;1.37;;
29478;SDS011;16437;41.836;23.480;2022-07-19T12:51:36;1.70;;;1.20;;
29478;SDS011;16437;41.836;23.480;2022-07-19T12:57:04;2.02;;;1.30;;
29478;SDS011;16437;41.836;23.480;2022-07-19T13:02:30;1.92;;;1.30;;
29478;SDS011;16437;41.836;23.480;2022-07-19T13:07:57;3.00;;;1.40;;
29478;SDS011;16437;41.836;23.480;2022-07-19T13:13:24;2.25;;;1.32;;
29478;SDS011;16437;41.836;23.480;2022-07-19T13:18:51;2.87;;;1.25;;
29478;SDS011;16437;41.836;23.480;2022-07-19T13:24:18;1.92;;;1.10;;
29478;SDS011;16437;41.836;23.480;2022-07-19T13:29:45;2.55;;;1.30;;
29478;SDS011;16437;41.836;23.480;2022-07-19T13:35:12;1.82;;;1.10;;
29478;SDS011;16437;41.836;23.480;2022-07-19T13:40:38;6.60;;;1.20;;
29478;SDS011;16437;41.836;23.480;2022-07-19T13:46:05;2.70;;;1.22;;
29478;SDS011;16437;41.836;23.480;2022-07-19T13:51:32;1.37;;;1.27;;
29478;SDS011;16437;41.836;23.480;2022-07-19T13:56:59;2.10;;;1.20;;
29478;SDS011;16437;41.836;23.480;2022-07-19T14:02:25;2.27;;;1.30;;
29478;SDS011;16437;41.836;23.480;2022-07-19T14:07:51;1.75;;;1.20;;
29478;SDS011;16437;41.836;23.480;2022-07-19T14:13:18;1.60;;;1.10;;
29478;SDS011;16437;41.836;23.480;2022-07-19T14:18:45;1.22;;;1.00;;
29478;SDS011;16437;41.836;23.480;2022-07-19T14:24:11;3.70;;;1.22;;
29478;SDS011;16437;41.836;23.480;2022-07-19T14:29:38;1.65;;;1.15;;
29478;SDS011;16437;41.836;23.480;2022-07-19T14:35:05;3.87;;;1.40;;
29478;SDS011;16437;41.836;23.480;2022-07-19T14:40:31;2.50;;;1.25;;
29478;SDS011;16437;41.836;23.480;2022-07-19T14:45:58;3.77;;;1.27;;
29478;SDS011;16437;41.836;23.480;2022-07-19T14:51:25;2.20;;;1.15;;
29478;SDS011;16437;41.836;23.480;2022-07-19T14:56:52;1.82;;;1.10;;
29478;SDS011;16437;41.836;23.480;2022-07-19T15:02:19;1.98;;;1.25;;
29478;SDS011;16437;41.836;23.480;2022-07-19T15:07:46;1.85;;;0.95;;
29478;SDS011;16437;41.836;23.480;2022-07-19T15:13:12;3.92;;;1.17;;
29478;SDS011;16437;41.836;23.480;2022-07-19T15:18:39;2.20;;;0.95;;
29478;SDS011;16437;41.836;23.480;2022-07-19T15:24:05;2.85;;;1.40;;
29478;SDS011;16437;41.836;23.480;2022-07-19T15:29:31;2.08;;;1.30;;
29478;SDS011;16437;41.836;23.480;2022-07-19T15:34:58;2.08;;;1.22;;
29478;SDS011;16437;41.836;23.480;2022-07-19T15:40:24;4.87;;;1.82;;
29478;SDS011;16437;41.836;23.480;2022-07-19T15:45:51;2.62;;;1.27;;
29478;SDS011;16437;41.836;23.480;2022-07-19T15:51:18;2.25;;;1.27;;
29478;SDS011;16437;41.836;23.480;2022-07-19T15:56:44;4.53;;;1.50;;
29478;SDS011;16437;41.836;23.480;2022-07-19T16:02:10;5.05;;;1.40;;
29478;SDS011;16437;41.836;23.480;2022-07-19T16:07:37;4.03;;;1.25;;
29478;SDS011;16437;41.836;23.480;2022-07-19T16:13:04;4.85;;;1.60;;
29478;SDS011;16437;41.836;23.480;2022-07-19T16:18:31;7.40;;;1.60;;
29478;SDS011;16437;41.836;23.480;2022-07-19T16:23:57;2.95;;;1.47;;
29478;SDS011;16437;41.836;23.480;2022-07-19T16:29:24;4.35;;;1.32;;
29478;SDS011;16437;41.836;23.480;2022-07-19T16:34:50;2.83;;;1.37;;
29478;SDS011;16437;41.836;23.480;2022-07-19T16:40:17;3.67;;;1.50;;
29478;SDS011;16437;41.836;23.480;2022-07-19T16:45:44;5.80;;;1.37;;
29478;SDS011;16437;41.836;23.480;2022-07-19T16:51:10;4.03;;;1.50;;
29478;SDS011;16437;41.836;23.480;2022-07-19T16:56:37;2.37;;;1.42;;
29478;SDS011;16437;41.836;23.480;2022-07-19T17:02:03;2.37;;;1.50;;
29478;SDS011;16437;41.836;23.480;2022-07-19T17:07:29;2.15;;;1.55;;
29478;SDS011;16437;41.836;23.480;2022-07-19T17:12:56;3.15;;;1.42;;
29478;SDS011;16437;41.836;23.480;2022-07-19T17:18:22;7.17;;;1.52;;
29478;SDS011;16437;41.836;23.480;2022-07-19T17:23:49;4.53;;;1.62;;
29478;SDS011;16437;41.836;23.480;2022-07-19T17:29:15;3.75;;;1.40;;
29478;SDS011;16437;41.836;23.480;2022-07-19T17:34:42;3.90;;;1.65;;
29478;SDS011;16437;41.836;23.480;2022-07-19T17:40:09;3.40;;;1.40;;
29478;SDS011;16437;41.836;23.480;2022-07-19T17:45:36;2.42;;;1.45;;
29478;SDS011;16437;41.836;23.480;2022-07-19T17:51:02;9.80;;;1.70;;
29478;SDS011;16437;41.836;23.480;2022-07-19T17:56:28;2.02;;;1.22;;
29478;SDS011;16437;41.836;23.480;2022-07-19T18:01:55;2.10;;;1.60;;
29478;SDS011;16437;41.836;23.480;2022-07-19T18:07:21;2.77;;;1.50;;
29478;SDS011;16437;41.836;23.480;2022-07-19T18:12:47;3.10;;;1.60;;
29478;SDS011;16437;41.836;23.480;2022-07-19T18:18:14;2.08;;;1.35;;
29478;SDS011;16437;41.836;23.480;2022-07-19T18:23:41;3.58;;;1.55;;
29478;SDS011;16437;41.836;23.480;2022-07-19T18:29:07;4.33;;;1.40;;
29478;SDS011;16437;41.836;23.480;2022-07-19T18:34:34;3.45;;;1.30;;
29478;SDS011;16437;41.836;23.480;2022-07-19T18:40:01;1.77;;;1.17;;
29478;SDS011;16437;41.836;23.480;2022-07-19T18:45:28;2.08;;;1.20;;
29478;SDS011;16437;41.836;23.480;2022-07-19T18:50:55;2.20;;;1.45;;
29478;SDS011;16437;41.836;23.480;2022-07-19T18:56:23;2.60;;;1.30;;
29478;SDS011;16437;41.836;23.480;2022-07-19T19:01:49;2.47;;;1.22;;
29478;SDS011;16437;41.836;23.480;2022-07-19T19:07:15;3.40;;;1.42;;
29478;SDS011;16437;41.836;23.480;2022-07-19T19:12:41;1.70;;;1.17;;
29478;SDS011;16437;41.836;23.480;2022-07-19T19:18:08;2.92;;;1.55;;
29478;SDS011;16437;41.836;23.480;2022-07-19T19:23:34;1.85;;;1.47;;
29478;SDS011;16437;41.836;23.480;2022-07-19T19:29:01;2.95;;;1.52;;
29478;SDS011;16437;41.836;23.480;2022-07-19T19:34:28;3.37;;;1.30;;
29478;SDS011;16437;41.836;23.480;2022-07-19T19:39:55;1.30;;;1.20;;
29478;SDS011;16437;41.836;23.480;2022-07-19T19:45:21;2.20;;;1.40;;
29478;SDS011;16437;41.836;23.480;2022-07-19T19:50:48;2.58;;;1.30;;
29478;SDS011;16437;41.836;23.480;2022-07-19T19:56:14;2.30;;;1.20;;
29478;SDS011;16437;41.836;23.480;2022-07-19T20:01:41;2.27;;;1.47;;
29478;SDS011;16437;41.836;23.480;2022-07-19T20:07:07;2.10;;;1.40;;
29478;SDS011;16437;41.836;23.480;2022-07-19T20:12:33;1.90;;;1.50;;
29478;SDS011;16437;41.836;23.480;2022-07-19T20:18:00;1.80;;;1.10;;
29478;SDS011;16437;41.836;23.480;2022-07-19T20:23:26;2.50;;;1.20;;
29478;SDS011;16437;41.836;23.480;2022-07-19T20:28:53;2.12;;;1.10;;
29478;SDS011;16437;41.836;23.480;2022-07-19T20:34:19;2.62;;;1.30;;
29478;SDS011;16437;41.836;23.480;2022-07-19T20:39:46;2.85;;;1.35;;
29478;SDS011;16437;41.836;23.480;2022-07-19T20:45:12;1.50;;;1.20;;
29478;SDS011;16437;41.836;23.480;2022-07-19T20:50:40;1.77;;;1.30;;
29478;SDS011;16437;41.836;23.480;2022-07-19T20:56:07;2.33;;;1.35;;
29478;SDS011;16437;41.836;23.480;2022-07-19T21:01:34;1.95;;;1.40;;
29478;SDS011;16437;41.836;23.480;2022-07-19T21:07:00;1.30;;;1.20;;
29478;SDS011;16437;41.836;23.480;2022-07-19T21:12:26;2.12;;;1.22;;
29478;SDS011;16437;41.836;23.480;2022-07-19T21:17:53;2.12;;;1.30;;
29478;SDS011;16437;41.836;23.480;2022-07-19T21:23:19;1.45;;;1.10;;
29478;SDS011;16437;41.836;23.480;2022-07-19T21:28:46;1.60;;;1.20;;
29478;SDS011;16437;41.836;23.480;2022-07-19T21:34:13;3.05;;;1.40;;
29478;SDS011;16437;41.836;23.480;2022-07-19T21:39:39;1.47;;;1.30;;
29478;SDS011;16437;41.836;23.480;2022-07-19T21:45:06;1.52;;;1.17;;
29478;SDS011;16437;41.836;23.480;2022-07-19T21:50:33;1.50;;;1.25;;
29478;SDS011;16437;41.836;23.480;2022-07-19T21:55:59;1.67;;;1.40;;
29478;SDS011;16437;41.836;23.480;2022-07-19T22:01:26;1.32;;;1.05;;
29478;SDS011;16437;41.836;23.480;2022-07-19T22:06:52;1.82;;;1.30;;
29478;SDS011;16437;41.836;23.480;2022-07-19T22:12:19;1.57;;;1.10;;
29478;SDS011;16437;41.836;23.480;2022-07-19T22:17:46;1.67;;;1.17;;
29478;SDS011;16437;41.836;23.480;2022-07-19T22:23:12;1.72;;;1.30;;
29478;SDS011;16437;41.836;23.480;2022-07-19T22:28:40;1.40;;;1.30;;
29478;SDS011;16437;41.836;23.480;2022-07-19T22:34:06;1.92;;;1.30;;
29478;SDS011;16437;41.836;23.480;2022-07-19T22:39:33;1.55;;;1.20;;
29478;SDS011;16437;41.836;23.480;2022-07-19T22:45:00;1.60;;;1.12;;
29478;SDS011;16437;41.836;23.480;2022-07-19T22:50:26;2.17;;;1.20;;
29478;SDS011;16437;41.836;23.480;2022-07-19T22:55:53;1.82;;;1.02;;
29478;SDS011;16437;41.836;23.480;2022-07-19T23:01:20;1.32;;;1.17;;
29478;SDS011;16437;41.836;23.480;2022-07-19T23:06:47;4.65;;;1.30;;
29478;SDS011;16437;41.836;23.480;2022-07-19T23:12:13;1.82;;;1.22;;
29478;SDS011;16437;41.836;23.480;2022-07-19T23:17:39;1.67;;;1.07;;
29478;SDS011;16437;41.836;23.480;2022-07-19T23:23:06;1.32;;;1.05;;
29478;SDS011;16437;41.836;23.480;2022-07-19T23:28:32;1.80;;;1.20;;
29478;SDS011;16437;41.836;23.480;2022-07-19T23:33:59;1.77;;;1.12;;
29478;SDS011;16437;41.836;23.480;2022-07-19T23:39:25;1.67;;;1.30;;
29478;SDS011;16437;41.836;23.480;2022-07-19T23:44:52;4.05;;;1.50;;
29478;SDS011;16437;41.836;23.480;2022-07-19T23:50:18;2.25;;;1.40;;
29478;SDS011;16437;41.836;23.480;2022-07-19T23:55:45;1.87;;;1.20;;
